Bookmark and Share
Track history (hours):
 

Izumo Princess

Last reported at 2014-Apr-24 16:18 UTC. Time now 2014-Apr-24 22:12 UTC.
Position N 37°09' E 002°25'.

Length 229 m; draft 12.3 m.

Type: Ship (hazmat cat C). MMSI: 240611000.

NotesDate/timePositionNaut miles runAvg speedWind from/ knotsBaromVisibWave heightAir tempDewpointWater temp
2014-Apr-24 16:18N 37°09' E 002°25'6111.9
2014-Apr-24 11:12N 37°20' E 003°40'812.1
2014-Apr-24 10:32N 37°20' E 003°50'7011.7
2014-Apr-24 04:33N 37°28' E 005°17'1510.7
2014-Apr-24 03:09N 37°29' E 005°36'911.2
2014-Apr-24 02:23N 37°30' E 005°47'24110.9
2014-Apr-23 04:18N 37°33' E 010°51'2010.9
2014-Apr-23 02:29N 37°26' E 011°14'1111.0
2014-Apr-23 01:29N 37°21' E 011°26'1311.5
2014-Apr-23 00:20N 37°14' E 011°41'1011.9
2014-Apr-22 23:29N 37°09' E 011°52'1211.6
2014-Apr-22 22:27N 37°03' E 012°04'1111.5
2014-Apr-22 21:31N 36°58' E 012°16'2711.6
2014-Apr-22 19:12N 36°46' E 012°46'3111.1
2014-Apr-22 16:26N 36°33' E 013°21'1511.5
2014-Apr-22 15:07N 36°31' E 013°40'711.7
2014-Apr-22 14:33N 36°30' E 013°48'1212.1
2014-Apr-22 13:33N 36°29' E 014°03'1212.2
2014-Apr-22 12:33N 36°27' E 014°18'1312.1
2014-Apr-22 11:31N 36°24' E 014°33'50812.0
2014-Apr-20 17:07N 34°45' E 024°45'38011.6
2014-Apr-19 08:31N 35°27' E 032°27'1112.0
2014-Apr-19 07:33N 35°31' E 032°40'1211.8
2014-Apr-19 06:33N 35°34' E 032°54'2 0.0
2014-Apr-17 03:09N 35°35' E 032°56'1312.7
2014-Apr-17 02:09N 35°31' E 032°41'30912.4
2014-Apr-16 01:07N 34°50' E 026°26'  

Dump ship's entire track history

sailing weather and tide predictions

Izumo Princess — SXMB — position and weather